Bans from mc.auscraft.org

Ban ID Player Name Banned By Ban Reason Date Issued Reputation
Local 5563878 kyzentv ultima84 griefing 2016-10-06 10:36:07 10 / 10
Global 5563877 bloodwolf_12345 ultima84 griefing, logblock confirmed 2016-10-06 10:34:33 7.47 / 10
Global 5563873 jakeryanbritt ultima84 griefing and theft, logblock confirmed 2016-10-06 08:59:03 7.47 / 10
Global 5563716 minesomniagrief console linking pornographic material in chat 2016-10-04 04:57:03 7.47 / 10
Global 5563715 poppyssunglasses console linking pornographic material in chat 2016-10-04 04:56:03 7.47 / 10
Global 5563079 axeando ultima84 xraying and griefing, logblock confirmed 2016-09-25 22:40:58 7.47 / 10
Local 5562952 frostyclockwork console excessive profanity [ENDS 2016-09-24 12:35:27] 2016-09-24 12:25:27 10 / 10
Global 5562932 gilesquest ultima84 xraying, logblock confirmed 2016-09-24 07:05:37 7.47 / 10
Global 5562629 nexperisone ultima84 griefing and theft, logblock confirmed 2016-09-19 10:27:08 7.47 / 10
Global 5562613 sprowt ultima84 griefing, logblock confirmed 2016-09-19 08:28:44 7.47 / 10
Local 5562526 frostyclockwork console excessive profanity [ENDS 2016-09-18 13:17:52] 2016-09-18 13:07:52 10 / 10
Global 5561160 luckyluukey ultima84 griefing, logblock confirmed 2016-09-02 14:53:26 7.47 / 10
Global 5561158 pizzahutguy ultima84 griefing, logblock confirmed 2016-09-02 14:50:58 7.47 / 10
Global 5561027 belshuruka ultima84 griefing, logblock confirmed 2016-08-31 08:59:57 7.47 / 10
Local 5560007 lox288 ultima84 griefing, logblock confirmed 2016-08-22 12:56:34 10 / 10
Local 5560005 m0nster2020 ultima84 griefing, logblock confirmed 2016-08-22 12:54:55 10 / 10
Global 5559842 juanguppy ultima84 xraying, logblock confirmed 2016-08-21 06:32:13 7.47 / 10
Local 5558878 drewbzz ultima84 rude/offensive/attempted to DoS server 2016-08-15 14:55:30 8.73 / 10
Global 5557731 strom_surge ultima84 griefing, logblock confirmed 2016-08-07 10:06:42 7.47 / 10
Local 5557648 honnydew12321 ultima84 griefing, logblock confirmed 2016-08-06 12:06:32 10 / 10
Global 5556949 jtb7101 ultima84 theft and griefing, logblock confirmed 2016-08-01 08:10:09 7.47 / 10
Global 5555992 zombiehunter2121 ultima84 griefing, logblock confirmed 2016-07-25 07:56:54 7.47 / 10
Global 5555988 steven09678 console Griefing, Logblock confirmed 2016-07-25 06:35:03 7.47 / 10
Local 5555987 sittingwheat69 console offensive 2016-07-25 06:34:29 10 / 10
Local 5555986 steven09678 console excessive profanity [ENDS 2016-07-25 06:41:03] 2016-07-25 06:31:03 7.47 / 10
Ban ID Player Name Banned By Ban Reason Date Issued Reputation
Showing 51 to 75 of 1611 entries